sensor_id;sensor_type;location;lat;lon;timestamp;temperature;humidity
12901;DHT22;6518;50.930;5.344;2023-06-22T00:01:00;23.10;65.80
12901;DHT22;6518;50.930;5.344;2023-06-22T00:03:27;23.00;66.00
12901;DHT22;6518;50.930;5.344;2023-06-22T00:05:55;23.00;66.10
12901;DHT22;6518;50.930;5.344;2023-06-22T00:08:22;22.90;65.90
12901;DHT22;6518;50.930;5.344;2023-06-22T00:10:49;22.90;66.20
12901;DHT22;6518;50.930;5.344;2023-06-22T00:13:16;22.80;66.10
12901;DHT22;6518;50.930;5.344;2023-06-22T00:15:44;22.80;66.20
12901;DHT22;6518;50.930;5.344;2023-06-22T00:18:11;22.80;66.10
12901;DHT22;6518;50.930;5.344;2023-06-22T00:20:39;22.70;66.30
12901;DHT22;6518;50.930;5.344;2023-06-22T00:23:07;22.70;66.40
12901;DHT22;6518;50.930;5.344;2023-06-22T00:25:34;22.70;66.60
12901;DHT22;6518;50.930;5.344;2023-06-22T00:28:02;22.70;66.70
12901;DHT22;6518;50.930;5.344;2023-06-22T00:30:29;22.70;66.50
12901;DHT22;6518;50.930;5.344;2023-06-22T00:32:57;22.70;66.50
12901;DHT22;6518;50.930;5.344;2023-06-22T00:35:25;22.70;66.40
12901;DHT22;6518;50.930;5.344;2023-06-22T00:37:54;22.70;66.30
12901;DHT22;6518;50.930;5.344;2023-06-22T00:40:27;22.80;66.30
12901;DHT22;6518;50.930;5.344;2023-06-22T00:42:54;22.80;66.20
12901;DHT22;6518;50.930;5.344;2023-06-22T00:45:22;22.80;66.20
12901;DHT22;6518;50.930;5.344;2023-06-22T00:47:50;22.80;66.20
12901;DHT22;6518;50.930;5.344;2023-06-22T00:50:20;22.80;66.00
12901;DHT22;6518;50.930;5.344;2023-06-22T00:52:51;22.70;67.20
12901;DHT22;6518;50.930;5.344;2023-06-22T00:55:19;22.60;66.30
12901;DHT22;6518;50.930;5.344;2023-06-22T00:57:47;22.60;66.40
12901;DHT22;6518;50.930;5.344;2023-06-22T01:00:15;22.60;66.50
12901;DHT22;6518;50.930;5.344;2023-06-22T01:02:43;22.60;66.40
12901;DHT22;6518;50.930;5.344;2023-06-22T01:05:12;22.60;66.40
12901;DHT22;6518;50.930;5.344;2023-06-22T01:07:44;22.50;66.40
12901;DHT22;6518;50.930;5.344;2023-06-22T01:10:17;22.40;66.50
12901;DHT22;6518;50.930;5.344;2023-06-22T01:12:50;22.40;66.70
12901;DHT22;6518;50.930;5.344;2023-06-22T01:15:23;22.40;66.60
12901;DHT22;6518;50.930;5.344;2023-06-22T01:17:52;22.40;66.70
12901;DHT22;6518;50.930;5.344;2023-06-22T01:20:20;22.30;67.00
12901;DHT22;6518;50.930;5.344;2023-06-22T01:23:07;22.30;67.10
12901;DHT22;6518;50.930;5.344;2023-06-22T01:25:43;22.30;67.20
12901;DHT22;6518;50.930;5.344;2023-06-22T01:28:23;22.20;67.20
12901;DHT22;6518;50.930;5.344;2023-06-22T01:30:53;22.20;67.40
12901;DHT22;6518;50.930;5.344;2023-06-22T01:33:33;22.20;67.30
12901;DHT22;6518;50.930;5.344;2023-06-22T01:36:01;22.20;67.80
12901;DHT22;6518;50.930;5.344;2023-06-22T01:38:29;22.10;67.90
12901;DHT22;6518;50.930;5.344;2023-06-22T01:40:57;22.10;67.90
12901;DHT22;6518;50.930;5.344;2023-06-22T01:43:26;22.10;67.90
12901;DHT22;6518;50.930;5.344;2023-06-22T01:45:56;22.20;68.00
12901;DHT22;6518;50.930;5.344;2023-06-22T01:48:23;22.10;68.10
12901;DHT22;6518;50.930;5.344;2023-06-22T01:50:52;22.00;68.20
12901;DHT22;6518;50.930;5.344;2023-06-22T01:53:21;22.00;68.30
12901;DHT22;6518;50.930;5.344;2023-06-22T01:55:48;22.00;68.40
12901;DHT22;6518;50.930;5.344;2023-06-22T01:58:15;22.00;68.60
12901;DHT22;6518;50.930;5.344;2023-06-22T02:00:46;22.00;68.80
12901;DHT22;6518;50.930;5.344;2023-06-22T02:03:19;22.00;68.80
12901;DHT22;6518;50.930;5.344;2023-06-22T02:05:50;22.00;69.20
12901;DHT22;6518;50.930;5.344;2023-06-22T02:08:21;22.00;69.40
12901;DHT22;6518;50.930;5.344;2023-06-22T02:10:49;21.80;69.70
12901;DHT22;6518;50.930;5.344;2023-06-22T02:13:17;21.80;70.10
12901;DHT22;6518;50.930;5.344;2023-06-22T02:15:45;21.70;70.60
12901;DHT22;6518;50.930;5.344;2023-06-22T02:18:13;21.70;70.90
12901;DHT22;6518;50.930;5.344;2023-06-22T02:20:41;21.60;71.20
12901;DHT22;6518;50.930;5.344;2023-06-22T02:23:08;21.60;71.60
12901;DHT22;6518;50.930;5.344;2023-06-22T02:25:36;21.60;71.90
12901;DHT22;6518;50.930;5.344;2023-06-22T02:28:03;21.60;71.80
12901;DHT22;6518;50.930;5.344;2023-06-22T02:30:31;21.60;72.00
12901;DHT22;6518;50.930;5.344;2023-06-22T02:32:58;21.60;72.20
12901;DHT22;6518;50.930;5.344;2023-06-22T02:35:25;21.60;72.30
12901;DHT22;6518;50.930;5.344;2023-06-22T02:37:54;21.60;72.30
12901;DHT22;6518;50.930;5.344;2023-06-22T02:40:21;21.60;72.70
12901;DHT22;6518;50.930;5.344;2023-06-22T02:42:47;21.60;72.90
12901;DHT22;6518;50.930;5.344;2023-06-22T02:45:14;21.70;73.00
12901;DHT22;6518;50.930;5.344;2023-06-22T02:47:41;21.70;73.20
12901;DHT22;6518;50.930;5.344;2023-06-22T02:50:09;21.60;73.60
12901;DHT22;6518;50.930;5.344;2023-06-22T02:52:36;21.60;74.10
12901;DHT22;6518;50.930;5.344;2023-06-22T02:55:06;21.50;74.30
12901;DHT22;6518;50.930;5.344;2023-06-22T02:57:33;21.50;74.90
12901;DHT22;6518;50.930;5.344;2023-06-22T03:00:03;21.40;75.00
12901;DHT22;6518;50.930;5.344;2023-06-22T03:02:42;21.40;75.20
12901;DHT22;6518;50.930;5.344;2023-06-22T03:05:09;21.40;75.40
12901;DHT22;6518;50.930;5.344;2023-06-22T03:07:39;21.50;75.70
12901;DHT22;6518;50.930;5.344;2023-06-22T03:10:08;21.40;76.10
12901;DHT22;6518;50.930;5.344;2023-06-22T03:12:36;21.30;76.30
12901;DHT22;6518;50.930;5.344;2023-06-22T03:15:05;21.30;76.90
12901;DHT22;6518;50.930;5.344;2023-06-22T03:17:32;21.20;77.20
12901;DHT22;6518;50.930;5.344;2023-06-22T03:19:59;21.20;77.70
12901;DHT22;6518;50.930;5.344;2023-06-22T03:22:26;21.20;77.90
12901;DHT22;6518;50.930;5.344;2023-06-22T03:24:52;21.10;78.10
12901;DHT22;6518;50.930;5.344;2023-06-22T03:27:21;21.20;78.30
12901;DHT22;6518;50.930;5.344;2023-06-22T03:29:47;21.20;78.40
12901;DHT22;6518;50.930;5.344;2023-06-22T03:32:14;21.20;78.60
12901;DHT22;6518;50.930;5.344;2023-06-22T03:34:41;21.10;78.80
12901;DHT22;6518;50.930;5.344;2023-06-22T03:37:13;21.20;79.10
12901;DHT22;6518;50.930;5.344;2023-06-22T03:39:40;21.10;79.10
12901;DHT22;6518;50.930;5.344;2023-06-22T03:42:07;21.10;79.60
12901;DHT22;6518;50.930;5.344;2023-06-22T03:44:36;21.10;79.90
12901;DHT22;6518;50.930;5.344;2023-06-22T03:47:03;21.10;79.90
12901;DHT22;6518;50.930;5.344;2023-06-22T03:49:33;21.10;80.30
12901;DHT22;6518;50.930;5.344;2023-06-22T03:52:00;21.10;80.50
12901;DHT22;6518;50.930;5.344;2023-06-22T03:54:28;21.10;80.40
12901;DHT22;6518;50.930;5.344;2023-06-22T03:56:56;21.20;80.50
12901;DHT22;6518;50.930;5.344;2023-06-22T03:59:23;21.30;80.40
12901;DHT22;6518;50.930;5.344;2023-06-22T04:01:52;21.30;80.30
12901;DHT22;6518;50.930;5.344;2023-06-22T04:04:19;21.30;80.50
12901;DHT22;6518;50.930;5.344;2023-06-22T04:06:46;21.40;80.20
12901;DHT22;6518;50.930;5.344;2023-06-22T04:09:13;21.40;80.30
12901;DHT22;6518;50.930;5.344;2023-06-22T04:11:39;21.50;80.30
12901;DHT22;6518;50.930;5.344;2023-06-22T04:14:06;21.60;80.30
12901;DHT22;6518;50.930;5.344;2023-06-22T04:16:33;21.60;80.20
12901;DHT22;6518;50.930;5.344;2023-06-22T04:19:01;21.70;80.10
12901;DHT22;6518;50.930;5.344;2023-06-22T04:21:28;21.70;80.00
12901;DHT22;6518;50.930;5.344;2023-06-22T04:23:55;21.80;79.80
12901;DHT22;6518;50.930;5.344;2023-06-22T04:26:22;21.80;79.70
12901;DHT22;6518;50.930;5.344;2023-06-22T04:28:49;21.80;79.60
12901;DHT22;6518;50.930;5.344;2023-06-22T04:31:21;21.90;79.70
12901;DHT22;6518;50.930;5.344;2023-06-22T04:33:56;21.90;79.70
12901;DHT22;6518;50.930;5.344;2023-06-22T04:36:24;22.00;79.90
12901;DHT22;6518;50.930;5.344;2023-06-22T04:38:56;22.00;79.60
12901;DHT22;6518;50.930;5.344;2023-06-22T04:41:23;22.00;79.80
12901;DHT22;6518;50.930;5.344;2023-06-22T04:43:50;22.00;80.10
12901;DHT22;6518;50.930;5.344;2023-06-22T04:46:19;22.10;81.60
12901;DHT22;6518;50.930;5.344;2023-06-22T04:48:46;22.10;81.50
12901;DHT22;6518;50.930;5.344;2023-06-22T04:51:13;22.10;82.50
12901;DHT22;6518;50.930;5.344;2023-06-22T04:53:41;22.00;82.60
12901;DHT22;6518;50.930;5.344;2023-06-22T04:56:08;22.00;82.70
12901;DHT22;6518;50.930;5.344;2023-06-22T04:58:35;22.00;84.50
12901;DHT22;6518;50.930;5.344;2023-06-22T05:01:02;22.00;84.70
12901;DHT22;6518;50.930;5.344;2023-06-22T05:03:29;21.90;85.70
12901;DHT22;6518;50.930;5.344;2023-06-22T05:05:56;21.90;86.70
12901;DHT22;6518;50.930;5.344;2023-06-22T05:08:23;21.80;87.30
12901;DHT22;6518;50.930;5.344;2023-06-22T05:10:54;21.80;88.90
12901;DHT22;6518;50.930;5.344;2023-06-22T05:13:22;21.60;90.50
12901;DHT22;6518;50.930;5.344;2023-06-22T05:15:52;21.50;91.90
12901;DHT22;6518;50.930;5.344;2023-06-22T05:18:26;21.40;94.40
12901;DHT22;6518;50.930;5.344;2023-06-22T05:20:56;21.30;97.00
12901;DHT22;6518;50.930;5.344;2023-06-22T05:23:23;21.20;99.20
12901;DHT22;6518;50.930;5.344;2023-06-22T05:25:50;21.20;99.90
12901;DHT22;6518;50.930;5.344;2023-06-22T05:28:19;21.10;99.90
12901;DHT22;6518;50.930;5.344;2023-06-22T05:30:48;21.00;99.90
12901;DHT22;6518;50.930;5.344;2023-06-22T05:33:15;20.90;99.90
12901;DHT22;6518;50.930;5.344;2023-06-22T05:35:42;21.10;99.90
12901;DHT22;6518;50.930;5.344;2023-06-22T05:38:09;20.80;99.90
12901;DHT22;6518;50.930;5.344;2023-06-22T05:40:36;20.80;99.90
12901;DHT22;6518;50.930;5.344;2023-06-22T05:43:02;20.80;99.90
12901;DHT22;6518;50.930;5.344;2023-06-22T05:45:31;20.80;99.90
12901;DHT22;6518;50.930;5.344;2023-06-22T05:47:57;20.80;99.90
12901;DHT22;6518;50.930;5.344;2023-06-22T05:50:24;20.80;99.90
12901;DHT22;6518;50.930;5.344;2023-06-22T05:52:51;20.80;99.90
12901;DHT22;6518;50.930;5.344;2023-06-22T05:55:18;20.80;99.90
12901;DHT22;6518;50.930;5.344;2023-06-22T05:57:45;20.80;99.90
12901;DHT22;6518;50.930;5.344;2023-06-22T06:00:12;20.90;99.90
12901;DHT22;6518;50.930;5.344;2023-06-22T06:02:41;20.90;99.90
12901;DHT22;6518;50.930;5.344;2023-06-22T06:05:10;20.90;99.90
12901;DHT22;6518;50.930;5.344;2023-06-22T06:07:37;20.80;99.90
12901;DHT22;6518;50.930;5.344;2023-06-22T06:10:04;20.90;99.90
12901;DHT22;6518;50.930;5.344;2023-06-22T06:12:31;20.90;99.90
12901;DHT22;6518;50.930;5.344;2023-06-22T06:14:58;20.90;99.90
12901;DHT22;6518;50.930;5.344;2023-06-22T06:17:25;20.90;99.90
12901;DHT22;6518;50.930;5.344;2023-06-22T06:19:54;21.00;99.90
12901;DHT22;6518;50.930;5.344;2023-06-22T06:22:20;21.00;99.90
12901;DHT22;6518;50.930;5.344;2023-06-22T06:24:49;21.10;99.90
12901;DHT22;6518;50.930;5.344;2023-06-22T06:27:16;21.10;99.90
12901;DHT22;6518;50.930;5.344;2023-06-22T06:29:44;21.10;99.90
12901;DHT22;6518;50.930;5.344;2023-06-22T06:32:14;21.20;99.90
12901;DHT22;6518;50.930;5.344;2023-06-22T06:34:41;21.20;99.90
12901;DHT22;6518;50.930;5.344;2023-06-22T06:37:10;21.20;99.90
12901;DHT22;6518;50.930;5.344;2023-06-22T06:39:37;21.10;99.90
12901;DHT22;6518;50.930;5.344;2023-06-22T06:42:05;21.10;99.90
12901;DHT22;6518;50.930;5.344;2023-06-22T06:44:32;21.10;99.90
12901;DHT22;6518;50.930;5.344;2023-06-22T06:46:59;21.20;99.90
12901;DHT22;6518;50.930;5.344;2023-06-22T06:49:26;21.10;99.90
12901;DHT22;6518;50.930;5.344;2023-06-22T06:51:54;21.20;99.90
12901;DHT22;6518;50.930;5.344;2023-06-22T06:54:23;21.30;99.90
12901;DHT22;6518;50.930;5.344;2023-06-22T06:56:50;21.40;99.90
12901;DHT22;6518;50.930;5.344;2023-06-22T06:59:17;21.40;99.90
12901;DHT22;6518;50.930;5.344;2023-06-22T07:01:44;21.50;99.90
12901;DHT22;6518;50.930;5.344;2023-06-22T07:04:11;21.60;99.90
12901;DHT22;6518;50.930;5.344;2023-06-22T07:06:38;21.60;99.90
12901;DHT22;6518;50.930;5.344;2023-06-22T07:09:05;21.70;99.90
12901;DHT22;6518;50.930;5.344;2023-06-22T07:11:33;21.80;99.90
12901;DHT22;6518;50.930;5.344;2023-06-22T07:14:02;21.90;99.90
12901;DHT22;6518;50.930;5.344;2023-06-22T07:16:28;22.10;99.90
12901;DHT22;6518;50.930;5.344;2023-06-22T07:18:56;22.10;99.90
12901;DHT22;6518;50.930;5.344;2023-06-22T07:21:25;22.10;99.90
12901;DHT22;6518;50.930;5.344;2023-06-22T07:23:52;22.00;99.90
12901;DHT22;6518;50.930;5.344;2023-06-22T07:26:20;22.00;99.90
12901;DHT22;6518;50.930;5.344;2023-06-22T07:28:50;22.00;99.90
12901;DHT22;6518;50.930;5.344;2023-06-22T07:31:17;22.00;99.90
12901;DHT22;6518;50.930;5.344;2023-06-22T07:33:44;22.00;99.90
12901;DHT22;6518;50.930;5.344;2023-06-22T07:36:10;22.00;99.90
12901;DHT22;6518;50.930;5.344;2023-06-22T07:38:38;22.00;99.90
12901;DHT22;6518;50.930;5.344;2023-06-22T07:41:04;22.10;99.90
12901;DHT22;6518;50.930;5.344;2023-06-22T07:43:32;22.20;99.90
12901;DHT22;6518;50.930;5.344;2023-06-22T07:46:01;22.20;99.90
12901;DHT22;6518;50.930;5.344;2023-06-22T07:48:28;22.30;99.90
12901;DHT22;6518;50.930;5.344;2023-06-22T07:50:55;22.40;99.90
12901;DHT22;6518;50.930;5.344;2023-06-22T07:53:22;22.30;99.90
12901;DHT22;6518;50.930;5.344;2023-06-22T07:55:50;22.40;99.90
12901;DHT22;6518;50.930;5.344;2023-06-22T07:58:17;22.40;99.90
12901;DHT22;6518;50.930;5.344;2023-06-22T08:00:46;22.40;99.90
12901;DHT22;6518;50.930;5.344;2023-06-22T08:03:15;22.50;99.90
12901;DHT22;6518;50.930;5.344;2023-06-22T08:05:42;22.60;99.90
12901;DHT22;6518;50.930;5.344;2023-06-22T08:08:09;22.70;99.90
12901;DHT22;6518;50.930;5.344;2023-06-22T08:10:37;22.90;99.90
12901;DHT22;6518;50.930;5.344;2023-06-22T08:13:04;23.00;99.90
12901;DHT22;6518;50.930;5.344;2023-06-22T08:15:31;23.10;99.90
12901;DHT22;6518;50.930;5.344;2023-06-22T08:17:58;23.20;99.90
12901;DHT22;6518;50.930;5.344;2023-06-22T08:20:27;23.40;99.90
12901;DHT22;6518;50.930;5.344;2023-06-22T08:22:55;23.40;99.90
12901;DHT22;6518;50.930;5.344;2023-06-22T08:25:24;23.40;99.90
12901;DHT22;6518;50.930;5.344;2023-06-22T08:27:51;23.40;99.90
12901;DHT22;6518;50.930;5.344;2023-06-22T08:30:18;23.50;99.90
12901;DHT22;6518;50.930;5.344;2023-06-22T08:32:45;23.50;99.90
12901;DHT22;6518;50.930;5.344;2023-06-22T08:35:12;23.60;99.90
12901;DHT22;6518;50.930;5.344;2023-06-22T08:37:40;23.70;99.90
12901;DHT22;6518;50.930;5.344;2023-06-22T08:40:09;23.80;99.90
12901;DHT22;6518;50.930;5.344;2023-06-22T08:42:36;23.90;99.90
12901;DHT22;6518;50.930;5.344;2023-06-22T08:45:04;24.00;99.90
12901;DHT22;6518;50.930;5.344;2023-06-22T08:47:31;24.10;99.00
12901;DHT22;6518;50.930;5.344;2023-06-22T08:49:58;24.00;97.70
12901;DHT22;6518;50.930;5.344;2023-06-22T08:52:27;24.00;97.30
12901;DHT22;6518;50.930;5.344;2023-06-22T08:54:56;23.90;96.80
12901;DHT22;6518;50.930;5.344;2023-06-22T08:57:23;23.90;97.30
12901;DHT22;6518;50.930;5.344;2023-06-22T08:59:51;23.80;97.30
12901;DHT22;6518;50.930;5.344;2023-06-22T09:02:19;23.80;97.50
12901;DHT22;6518;50.930;5.344;2023-06-22T09:04:46;23.70;97.50
12901;DHT22;6518;50.930;5.344;2023-06-22T09:07:14;23.70;97.70
12901;DHT22;6518;50.930;5.344;2023-06-22T09:09:47;23.70;97.50
12901;DHT22;6518;50.930;5.344;2023-06-22T09:12:18;23.70;97.60
12901;DHT22;6518;50.930;5.344;2023-06-22T09:14:45;23.60;97.90
12901;DHT22;6518;50.930;5.344;2023-06-22T09:17:13;23.60;98.00
12901;DHT22;6518;50.930;5.344;2023-06-22T09:19:40;23.70;98.30
12901;DHT22;6518;50.930;5.344;2023-06-22T09:22:07;23.60;98.00
12901;DHT22;6518;50.930;5.344;2023-06-22T09:24:34;23.60;98.10
12901;DHT22;6518;50.930;5.344;2023-06-22T09:27:01;23.50;98.60
12901;DHT22;6518;50.930;5.344;2023-06-22T09:29:30;23.40;99.00
12901;DHT22;6518;50.930;5.344;2023-06-22T09:31:59;23.50;99.50
12901;DHT22;6518;50.930;5.344;2023-06-22T09:34:26;23.50;99.40
12901;DHT22;6518;50.930;5.344;2023-06-22T09:36:53;23.50;99.40
12901;DHT22;6518;50.930;5.344;2023-06-22T09:39:20;23.50;99.40
12901;DHT22;6518;50.930;5.344;2023-06-22T09:41:47;23.50;99.40
12901;DHT22;6518;50.930;5.344;2023-06-22T09:44:14;23.60;99.40
12901;DHT22;6518;50.930;5.344;2023-06-22T09:46:42;23.60;99.30
12901;DHT22;6518;50.930;5.344;2023-06-22T09:49:09;23.60;99.30
12901;DHT22;6518;50.930;5.344;2023-06-22T09:51:36;23.50;99.30
12901;DHT22;6518;50.930;5.344;2023-06-22T09:54:03;23.60;99.50
12901;DHT22;6518;50.930;5.344;2023-06-22T09:56:30;23.60;99.80
12901;DHT22;6518;50.930;5.344;2023-06-22T09:58:57;23.70;99.90
12901;DHT22;6518;50.930;5.344;2023-06-22T10:01:24;23.70;99.90
12901;DHT22;6518;50.930;5.344;2023-06-22T10:03:52;23.70;99.90
12901;DHT22;6518;50.930;5.344;2023-06-22T10:06:21;23.60;99.90
12901;DHT22;6518;50.930;5.344;2023-06-22T10:08:50;23.60;99.90
12901;DHT22;6518;50.930;5.344;2023-06-22T10:11:16;23.60;99.90
12901;DHT22;6518;50.930;5.344;2023-06-22T10:13:43;23.60;99.90
12901;DHT22;6518;50.930;5.344;2023-06-22T10:16:10;23.40;99.90
12901;DHT22;6518;50.930;5.344;2023-06-22T10:18:37;23.30;99.90
12901;DHT22;6518;50.930;5.344;2023-06-22T10:21:05;23.20;99.90
12901;DHT22;6518;50.930;5.344;2023-06-22T10:23:32;23.10;99.90
12901;DHT22;6518;50.930;5.344;2023-06-22T10:25:59;22.90;99.90
12901;DHT22;6518;50.930;5.344;2023-06-22T10:28:26;22.80;99.90
12901;DHT22;6518;50.930;5.344;2023-06-22T10:30:53;22.70;99.90
12901;DHT22;6518;50.930;5.344;2023-06-22T10:33:20;22.60;99.90
12901;DHT22;6518;50.930;5.344;2023-06-22T10:35:47;22.60;99.90
12901;DHT22;6518;50.930;5.344;2023-06-22T10:38:15;22.40;99.90
12901;DHT22;6518;50.930;5.344;2023-06-22T10:40:42;22.30;99.90
12901;DHT22;6518;50.930;5.344;2023-06-22T10:43:09;22.10;99.90
12901;DHT22;6518;50.930;5.344;2023-06-22T10:45:36;22.10;99.90
12901;DHT22;6518;50.930;5.344;2023-06-22T10:48:03;22.00;99.90
12901;DHT22;6518;50.930;5.344;2023-06-22T10:50:30;22.00;99.90
12901;DHT22;6518;50.930;5.344;2023-06-22T10:52:57;22.10;99.90
12901;DHT22;6518;50.930;5.344;2023-06-22T10:55:25;22.10;99.90
12901;DHT22;6518;50.930;5.344;2023-06-22T10:57:52;22.00;99.90
12901;DHT22;6518;50.930;5.344;2023-06-22T11:00:19;22.00;99.90
12901;DHT22;6518;50.930;5.344;2023-06-22T11:02:46;22.00;99.90
12901;DHT22;6518;50.930;5.344;2023-06-22T11:05:13;22.00;99.90
12901;DHT22;6518;50.930;5.344;2023-06-22T11:07:42;21.90;99.90
12901;DHT22;6518;50.930;5.344;2023-06-22T11:10:10;21.90;99.90
12901;DHT22;6518;50.930;5.344;2023-06-22T11:12:38;21.90;99.90
12901;DHT22;6518;50.930;5.344;2023-06-22T11:15:06;22.00;99.90
12901;DHT22;6518;50.930;5.344;2023-06-22T11:17:33;22.00;99.90
12901;DHT22;6518;50.930;5.344;2023-06-22T11:19:59;22.10;99.90
12901;DHT22;6518;50.930;5.344;2023-06-22T11:22:26;22.10;99.90
12901;DHT22;6518;50.930;5.344;2023-06-22T11:24:53;22.30;99.90
12901;DHT22;6518;50.930;5.344;2023-06-22T11:27:21;22.30;99.90
12901;DHT22;6518;50.930;5.344;2023-06-22T11:29:50;22.30;99.90
12901;DHT22;6518;50.930;5.344;2023-06-22T11:32:18;22.50;99.90
12901;DHT22;6518;50.930;5.344;2023-06-22T11:34:45;22.40;99.90
12901;DHT22;6518;50.930;5.344;2023-06-22T11:37:12;22.50;99.90
12901;DHT22;6518;50.930;5.344;2023-06-22T11:39:39;22.60;99.90
12901;DHT22;6518;50.930;5.344;2023-06-22T11:42:06;22.60;99.90
12901;DHT22;6518;50.930;5.344;2023-06-22T11:44:33;22.60;99.90
12901;DHT22;6518;50.930;5.344;2023-06-22T11:47:01;22.60;99.90
12901;DHT22;6518;50.930;5.344;2023-06-22T11:49:30;22.50;99.90
12901;DHT22;6518;50.930;5.344;2023-06-22T11:51:57;22.40;99.90
12901;DHT22;6518;50.930;5.344;2023-06-22T11:54:23;22.30;99.90
12901;DHT22;6518;50.930;5.344;2023-06-22T11:56:50;22.20;99.90
12901;DHT22;6518;50.930;5.344;2023-06-22T11:59:17;22.00;99.90
12901;DHT22;6518;50.930;5.344;2023-06-22T12:01:44;21.90;99.90
12901;DHT22;6518;50.930;5.344;2023-06-22T12:04:14;21.90;99.90
12901;DHT22;6518;50.930;5.344;2023-06-22T12:06:41;21.80;99.90
12901;DHT22;6518;50.930;5.344;2023-06-22T12:09:09;21.70;99.90
12901;DHT22;6518;50.930;5.344;2023-06-22T12:11:36;21.70;99.90
12901;DHT22;6518;50.930;5.344;2023-06-22T12:14:04;21.60;99.90
12901;DHT22;6518;50.930;5.344;2023-06-22T12:16:31;21.50;99.90
12901;DHT22;6518;50.930;5.344;2023-06-22T12:18:57;21.40;99.90
12901;DHT22;6518;50.930;5.344;2023-06-22T12:21:26;21.40;99.90
12901;DHT22;6518;50.930;5.344;2023-06-22T12:23:52;21.30;99.90
12901;DHT22;6518;50.930;5.344;2023-06-22T12:26:19;21.20;99.90
12901;DHT22;6518;50.930;5.344;2023-06-22T12:28:47;21.20;99.90
12901;DHT22;6518;50.930;5.344;2023-06-22T12:31:14;21.10;99.90
12901;DHT22;6518;50.930;5.344;2023-06-22T12:33:41;21.10;99.90
12901;DHT22;6518;50.930;5.344;2023-06-22T12:36:08;21.20;99.90
12901;DHT22;6518;50.930;5.344;2023-06-22T12:38:36;21.10;99.90
12901;DHT22;6518;50.930;5.344;2023-06-22T12:41:03;21.10;99.90
12901;DHT22;6518;50.930;5.344;2023-06-22T12:43:30;21.00;99.90
12901;DHT22;6518;50.930;5.344;2023-06-22T12:45:57;21.00;99.90
12901;DHT22;6518;50.930;5.344;2023-06-22T12:48:25;21.00;99.90
12901;DHT22;6518;50.930;5.344;2023-06-22T12:50:52;21.00;99.90
12901;DHT22;6518;50.930;5.344;2023-06-22T12:53:19;20.90;99.90
12901;DHT22;6518;50.930;5.344;2023-06-22T12:55:49;20.90;99.90
12901;DHT22;6518;50.930;5.344;2023-06-22T12:58:16;20.80;99.90
12901;DHT22;6518;50.930;5.344;2023-06-22T13:00:43;20.80;99.90
12901;DHT22;6518;50.930;5.344;2023-06-22T13:03:10;20.80;99.90
12901;DHT22;6518;50.930;5.344;2023-06-22T13:05:37;20.70;99.90
12901;DHT22;6518;50.930;5.344;2023-06-22T13:08:04;20.60;99.90
12901;DHT22;6518;50.930;5.344;2023-06-22T13:10:31;20.70;99.90
12901;DHT22;6518;50.930;5.344;2023-06-22T13:12:59;20.70;99.90
12901;DHT22;6518;50.930;5.344;2023-06-22T13:15:27;20.60;99.90
12901;DHT22;6518;50.930;5.344;2023-06-22T13:17:54;20.70;99.90
12901;DHT22;6518;50.930;5.344;2023-06-22T13:20:21;20.70;99.90
12901;DHT22;6518;50.930;5.344;2023-06-22T13:22:48;20.60;99.90
12901;DHT22;6518;50.930;5.344;2023-06-22T13:25:15;20.60;99.90
12901;DHT22;6518;50.930;5.344;2023-06-22T13:27:44;20.60;99.90
12901;DHT22;6518;50.930;5.344;2023-06-22T13:30:13;20.60;99.90
12901;DHT22;6518;50.930;5.344;2023-06-22T13:32:40;20.40;99.90
12901;DHT22;6518;50.930;5.344;2023-06-22T13:35:09;20.30;99.90
12901;DHT22;6518;50.930;5.344;2023-06-22T13:37:36;20.30;99.90
12901;DHT22;6518;50.930;5.344;2023-06-22T13:40:04;20.30;99.90
12901;DHT22;6518;50.930;5.344;2023-06-22T13:42:32;20.20;99.90
12901;DHT22;6518;50.930;5.344;2023-06-22T13:44:59;20.10;99.90
12901;DHT22;6518;50.930;5.344;2023-06-22T13:47:28;20.10;99.90
12901;DHT22;6518;50.930;5.344;2023-06-22T13:49:55;20.00;99.90
12901;DHT22;6518;50.930;5.344;2023-06-22T13:52:23;20.00;99.90
12901;DHT22;6518;50.930;5.344;2023-06-22T13:54:50;19.90;99.90
12901;DHT22;6518;50.930;5.344;2023-06-22T13:57:17;19.80;99.90
12901;DHT22;6518;50.930;5.344;2023-06-22T13:59:44;19.90;99.90
12901;DHT22;6518;50.930;5.344;2023-06-22T14:02:11;19.80;99.90
12901;DHT22;6518;50.930;5.344;2023-06-22T14:04:39;19.90;99.90
12901;DHT22;6518;50.930;5.344;2023-06-22T14:07:07;19.80;99.90
12901;DHT22;6518;50.930;5.344;2023-06-22T14:09:34;19.80;99.90
12901;DHT22;6518;50.930;5.344;2023-06-22T14:12:03;19.80;99.90
12901;DHT22;6518;50.930;5.344;2023-06-22T14:14:31;19.70;99.90
12901;DHT22;6518;50.930;5.344;2023-06-22T14:16:58;19.70;99.90
12901;DHT22;6518;50.930;5.344;2023-06-22T14:19:25;19.50;99.90
12901;DHT22;6518;50.930;5.344;2023-06-22T14:21:53;19.50;99.90
12901;DHT22;6518;50.930;5.344;2023-06-22T14:24:20;19.50;99.90
12901;DHT22;6518;50.930;5.344;2023-06-22T14:26:47;19.40;99.90
12901;DHT22;6518;50.930;5.344;2023-06-22T14:29:13;19.40;99.90
12901;DHT22;6518;50.930;5.344;2023-06-22T14:31:44;19.30;99.90
12901;DHT22;6518;50.930;5.344;2023-06-22T14:34:11;19.30;99.90
12901;DHT22;6518;50.930;5.344;2023-06-22T14:36:38;19.30;99.90
12901;DHT22;6518;50.930;5.344;2023-06-22T14:39:06;19.30;99.90
12901;DHT22;6518;50.930;5.344;2023-06-22T14:41:33;19.20;99.90
12901;DHT22;6518;50.930;5.344;2023-06-22T14:44:00;19.20;99.90
12901;DHT22;6518;50.930;5.344;2023-06-22T14:46:27;19.20;99.90
12901;DHT22;6518;50.930;5.344;2023-06-22T14:48:54;19.20;99.90
12901;DHT22;6518;50.930;5.344;2023-06-22T14:51:21;19.20;99.90
12901;DHT22;6518;50.930;5.344;2023-06-22T14:53:48;19.10;99.90
12901;DHT22;6518;50.930;5.344;2023-06-22T14:56:16;19.10;99.90
12901;DHT22;6518;50.930;5.344;2023-06-22T14:58:43;19.00;99.90
12901;DHT22;6518;50.930;5.344;2023-06-22T15:01:11;18.90;99.90
12901;DHT22;6518;50.930;5.344;2023-06-22T15:03:38;18.90;99.90
12901;DHT22;6518;50.930;5.344;2023-06-22T15:06:05;18.80;99.90
12901;DHT22;6518;50.930;5.344;2023-06-22T15:08:33;18.80;99.90
12901;DHT22;6518;50.930;5.344;2023-06-22T15:11:00;18.90;99.90
12901;DHT22;6518;50.930;5.344;2023-06-22T15:13:30;18.90;99.90
12901;DHT22;6518;50.930;5.344;2023-06-22T15:15:59;18.90;99.90
12901;DHT22;6518;50.930;5.344;2023-06-22T15:18:26;18.90;99.90
12901;DHT22;6518;50.930;5.344;2023-06-22T15:20:53;18.80;99.90
12901;DHT22;6518;50.930;5.344;2023-06-22T15:23:20;18.70;99.90
12901;DHT22;6518;50.930;5.344;2023-06-22T15:25:47;18.70;99.90
12901;DHT22;6518;50.930;5.344;2023-06-22T15:28:14;18.70;99.90
12901;DHT22;6518;50.930;5.344;2023-06-22T15:30:43;18.70;99.90
12901;DHT22;6518;50.930;5.344;2023-06-22T15:33:09;18.70;99.90
12901;DHT22;6518;50.930;5.344;2023-06-22T15:35:36;18.70;99.90
12901;DHT22;6518;50.930;5.344;2023-06-22T15:38:03;18.70;99.90
12901;DHT22;6518;50.930;5.344;2023-06-22T15:40:30;18.70;99.90
12901;DHT22;6518;50.930;5.344;2023-06-22T15:42:57;18.70;99.90
12901;DHT22;6518;50.930;5.344;2023-06-22T15:45:24;18.70;99.90
12901;DHT22;6518;50.930;5.344;2023-06-22T15:47:55;18.70;99.90